Time;durP1;ratioP1;P1;durP2;ratioP2;P2;SDS_P1;SDS_P2;PMS_P1;PMS_P2;Temp;Humidity;BMP_temperature;BMP_pressure;BME280_temperature;BME280_humidity;BME280_pressure;Samples;Min_cycle;Max_cycle;Signal;HPM_P1;HPM_P2
2022/07/21 00:01:01;;;;;;;18.83;17.03;;;19.30;99.90;;;;;;4973639;28;20270;-73
2022/07/21 00:03:26;;;;;;;18.63;16.67;;;19.20;99.90;;;;;;4973652;28;20206;-73
2022/07/21 00:05:52;;;;;;;19.63;17.53;;;19.20;99.90;;;;;;4956744;28;20215;-72
2022/07/21 00:08:17;;;;;;;19.53;17.47;;;19.20;99.90;;;;;;4971628;28;20196;-73
2022/07/21 00:10:43;;;;;;;20.73;17.23;;;19.20;99.90;;;;;;4972207;28;20191;-73
2022/07/21 00:13:08;;;;;;;18.97;17.20;;;19.10;99.90;;;;;;4973262;28;20231;-74
2022/07/21 00:15:34;;;;;;;18.37;16.67;;;19.10;99.90;;;;;;4973859;28;20179;-73
2022/07/21 00:18:00;;;;;;;19.00;16.80;;;19.10;99.90;;;;;;4973744;28;20195;-73
2022/07/21 00:20:27;;;;;;;19.13;17.23;;;19.10;99.90;;;;;;4939059;28;20176;-73
2022/07/21 00:22:53;;;;;;;17.33;15.70;;;19.00;99.90;;;;;;4973165;28;20180;-73
2022/07/21 00:25:20;;;;;;;16.43;14.90;;;19.00;99.90;;;;;;4955698;28;20414;-73
2022/07/21 00:27:45;;;;;;;22.80;16.60;;;18.90;99.90;;;;;;4972994;28;20195;-74
2022/07/21 00:30:12;;;;;;;19.33;17.33;;;19.00;99.90;;;;;;4973164;28;20450;-73
2022/07/21 00:32:37;;;;;;;19.33;17.43;;;19.00;99.90;;;;;;4972464;28;20210;-73
2022/07/21 00:35:05;;;;;;;18.23;16.53;;;18.90;99.90;;;;;;4972925;28;20458;-73
2022/07/21 00:37:30;;;;;;;18.97;17.27;;;18.90;99.90;;;;;;4972610;28;20168;-74
2022/07/21 00:39:56;;;;;;;20.07;17.07;;;18.90;99.90;;;;;;4972627;28;20403;-73
2022/07/21 00:42:26;;;;;;;19.50;17.50;;;18.80;99.90;;;;;;4972172;28;20220;-73
2022/07/21 00:44:52;;;;;;;21.60;17.13;;;18.90;99.90;;;;;;4973118;28;20207;-74
2022/07/21 00:47:22;;;;;;;21.10;19.00;;;18.90;99.90;;;;;;4972728;28;20521;-73
2022/07/21 00:49:48;;;;;;;18.83;16.87;;;18.90;99.90;;;;;;4972863;28;20172;-73
2022/07/21 00:52:14;;;;;;;19.67;17.63;;;19.00;99.90;;;;;;4972060;28;20497;-73
2022/07/21 00:54:40;;;;;;;20.60;18.50;;;19.00;99.90;;;;;;4972295;28;20455;-72
2022/07/21 00:57:05;;;;;;;21.03;18.83;;;19.00;99.90;;;;;;4973008;28;20413;-73
2022/07/21 00:59:31;;;;;;;22.43;19.17;;;18.90;99.90;;;;;;4972728;28;20175;-73
2022/07/21 02:32:34;;;;;;;22.83;16.87;;;19.20;99.90;;;;;;5235983;23;20505;-74
2022/07/21 02:34:59;;;;;;;18.70;16.90;;;19.10;99.90;;;;;;4965489;28;20484;-77
2022/07/21 02:37:25;;;;;;;19.53;17.50;;;19.20;99.90;;;;;;4968388;28;20671;-77
2022/07/21 02:39:51;;;;;;;21.60;16.70;;;19.20;99.90;;;;;;4971830;28;20206;-77
2022/07/21 02:42:17;;;;;;;18.47;16.70;;;19.20;99.90;;;;;;4970609;28;20203;-75
2022/07/21 02:44:42;;;;;;;19.40;17.33;;;19.20;99.90;;;;;;4970957;28;20971;-77
2022/07/21 02:47:07;;;;;;;19.30;17.30;;;19.20;99.90;;;;;;4971154;28;20218;-75
2022/07/21 02:49:33;;;;;;;18.10;16.40;;;19.20;99.90;;;;;;4971221;28;20556;-77
2022/07/21 02:51:58;;;;;;;23.80;17.43;;;19.20;99.90;;;;;;4970394;28;20196;-76
2022/07/21 02:54:24;;;;;;;20.90;17.30;;;19.20;99.90;;;;;;4970775;28;20274;-76
2022/07/21 02:56:49;;;;;;;22.77;18.47;;;19.20;99.90;;;;;;4953749;28;20207;-77
2022/07/21 02:59:15;;;;;;;19.33;17.27;;;19.20;99.90;;;;;;4971044;28;20208;-75
2022/07/21 03:01:41;;;;;;;17.70;15.87;;;19.20;99.90;;;;;;4969895;28;20200;-75
2022/07/21 03:04:06;;;;;;;21.77;17.83;;;19.20;99.90;;;;;;4970622;28;20180;-75
2022/07/21 03:06:32;;;;;;;18.87;16.97;;;19.10;99.90;;;;;;4971099;28;20332;-76
2022/07/21 03:08:57;;;;;;;16.93;15.03;;;19.20;99.90;;;;;;4970931;28;20184;-76
2022/07/21 03:11:23;;;;;;;17.80;16.00;;;19.20;99.90;;;;;;4970602;28;20200;-78
2022/07/21 03:13:48;;;;;;;17.33;15.60;;;19.10;99.90;;;;;;4970644;28;20204;-77
2022/07/21 03:16:14;;;;;;;17.67;13.97;;;19.10;99.90;;;;;;4971373;28;20194;-76
2022/07/21 03:18:41;;;;;;;15.70;14.20;;;19.10;99.90;;;;;;4970582;28;20176;-77
2022/07/21 03:21:06;;;;;;;16.53;13.13;;;19.10;99.90;;;;;;4971198;28;20192;-77
2022/07/21 03:23:32;;;;;;;15.13;13.73;;;19.10;99.90;;;;;;4970918;28;20415;-77
2022/07/21 03:25:57;;;;;;;16.07;14.60;;;19.20;99.90;;;;;;4970828;28;20176;-77
2022/07/21 03:28:23;;;;;;;19.80;15.07;;;19.20;99.90;;;;;;4970483;28;20184;-76
2022/07/21 03:30:48;;;;;;;14.83;13.43;;;19.20;99.90;;;;;;4970949;28;20179;-76
2022/07/21 03:33:14;;;;;;;15.03;13.43;;;19.20;99.90;;;;;;4974390;28;20211;-76
2022/07/21 03:35:40;;;;;;;18.50;13.27;;;19.20;99.90;;;;;;4974363;28;20591;-76
2022/07/21 03:38:05;;;;;;;18.03;13.23;;;19.20;99.90;;;;;;4973743;28;20220;-77
2022/07/21 03:40:33;;;;;;;15.77;13.10;;;19.20;99.90;;;;;;4974127;28;20175;-75
2022/07/21 03:43:01;;;;;;;15.20;13.70;;;19.10;99.90;;;;;;4973938;28;20176;-76
2022/07/21 03:45:30;;;;;;;14.90;13.50;;;19.10;99.90;;;;;;4974408;28;20415;-77
2022/07/21 03:47:56;;;;;;;16.30;13.43;;;19.10;99.90;;;;;;4973785;28;20419;-74
2022/07/21 03:50:21;;;;;;;16.93;15.00;;;19.10;99.90;;;;;;4974022;28;20413;-77
2022/07/21 03:52:48;;;;;;;17.87;16.03;;;19.10;99.90;;;;;;4973152;28;20447;-76
2022/07/21 03:55:20;;;;;;;17.63;15.63;;;19.20;99.90;;;;;;4970165;28;20212;-77
2022/07/21 03:57:49;;;;;;;22.90;16.23;;;19.20;99.90;;;;;;4973721;28;20407;-74
2022/07/21 04:00:19;;;;;;;18.80;16.73;;;19.30;99.90;;;;;;4974293;28;20777;-78
2022/07/21 04:02:45;;;;;;;18.07;16.20;;;19.30;99.90;;;;;;4972600;28;20428;-72
2022/07/21 04:05:12;;;;;;;17.10;15.37;;;19.30;99.90;;;;;;4973940;28;20813;-73
2022/07/21 04:07:42;;;;;;;15.83;14.30;;;19.30;99.90;;;;;;4973726;28;20415;-73
2022/07/21 04:10:09;;;;;;;21.73;15.60;;;19.30;99.90;;;;;;4973898;28;20411;-73
2022/07/21 04:12:34;;;;;;;17.77;15.93;;;19.30;99.90;;;;;;4972798;28;20530;-74
2022/07/21 04:15:00;;;;;;;18.03;16.10;;;19.30;99.90;;;;;;4973414;28;20602;-74
2022/07/21 04:17:25;;;;;;;17.30;15.80;;;19.30;99.90;;;;;;4973219;28;20215;-73
2022/07/21 04:19:51;;;;;;;21.57;15.50;;;19.40;99.90;;;;;;4973671;28;20670;-75
2022/07/21 04:22:17;;;;;;;15.53;13.93;;;19.40;99.90;;;;;;4973179;28;20200;-73
2022/07/21 04:24:42;;;;;;;17.50;15.30;;;19.40;99.90;;;;;;4973646;28;20605;-74
2022/07/21 04:27:08;;;;;;;17.50;15.67;;;19.40;99.90;;;;;;4973768;28;20649;-75
2022/07/21 04:29:34;;;;;;;20.30;16.03;;;19.40;99.90;;;;;;4973069;28;20177;-75
2022/07/21 04:31:59;;;;;;;16.77;14.97;;;19.40;99.90;;;;;;4972862;28;20450;-75
2022/07/21 04:34:27;;;;;;;18.23;16.33;;;19.40;99.90;;;;;;4973026;28;20208;-71
2022/07/21 04:36:52;;;;;;;19.30;16.67;;;19.30;99.90;;;;;;4973661;28;20203;-75
2022/07/21 04:39:18;;;;;;;18.40;16.50;;;19.30;99.90;;;;;;4972843;28;20415;-74
2022/07/21 04:41:43;;;;;;;17.67;15.87;;;19.30;99.90;;;;;;4972081;28;20200;-75
2022/07/21 04:44:09;;;;;;;18.33;16.10;;;19.40;99.90;;;;;;4972662;28;20230;-74
2022/07/21 04:46:34;;;;;;;16.73;15.10;;;19.50;99.90;;;;;;4972729;28;20192;-75
2022/07/21 04:48:59;;;;;;;17.40;15.50;;;19.50;99.90;;;;;;4973058;28;20192;-74
2022/07/21 04:51:25;;;;;;;16.00;14.40;;;19.50;99.90;;;;;;4972375;28;20267;-72
2022/07/21 04:53:50;;;;;;;18.00;16.03;;;19.50;99.90;;;;;;4972886;28;20215;-75
2022/07/21 04:56:16;;;;;;;18.53;15.43;;;19.60;99.90;;;;;;4955719;28;20247;-71
2022/07/21 04:58:41;;;;;;;17.90;16.10;;;19.60;99.90;;;;;;4972346;28;20172;-72
2022/07/21 05:01:07;;;;;;;20.67;15.90;;;19.60;99.90;;;;;;4972112;28;20292;-71
2022/07/21 05:03:32;;;;;;;20.37;15.90;;;19.70;99.90;;;;;;4972528;28;20653;-72
2022/07/21 05:05:58;;;;;;;17.43;15.03;;;19.70;99.90;;;;;;4972574;28;20280;-72
2022/07/21 05:08:26;;;;;;;18.70;14.57;;;19.80;99.90;;;;;;4972230;28;20632;-75
2022/07/21 05:10:51;;;;;;;17.03;15.20;;;19.80;99.90;;;;;;4965872;28;20738;-74
2022/07/21 05:13:17;;;;;;;16.67;15.07;;;19.80;99.90;;;;;;4967567;28;21090;-74
2022/07/21 05:15:42;;;;;;;18.47;13.70;;;19.90;99.90;;;;;;4970771;28;20199;-75
2022/07/21 05:18:08;;;;;;;16.00;12.80;;;20.20;99.90;;;;;;4970472;28;20175;-74
2022/07/21 05:20:34;;;;;;;14.53;12.70;;;20.50;99.90;;;;;;4969848;28;20180;-72
2022/07/21 05:23:00;;;;;;;14.23;12.83;;;21.00;99.90;;;;;;4971399;28;20775;-76
2022/07/21 05:25:26;;;;;;;14.90;13.50;;;21.50;99.90;;;;;;4970803;28;20171;-74
2022/07/21 05:27:51;;;;;;;12.70;10.70;;;21.90;99.90;;;;;;4972228;28;20830;-75
2022/07/21 05:30:17;;;;;;;11.97;10.90;;;22.30;99.90;;;;;;4971840;28;20636;-73
2022/07/21 05:32:42;;;;;;;12.27;10.80;;;22.40;99.90;;;;;;4970963;28;20223;-76
2022/07/21 05:35:11;;;;;;;14.47;11.40;;;22.60;99.90;;;;;;4971839;28;20212;-73
2022/07/21 05:37:41;;;;;;;13.30;11.67;;;22.60;99.90;;;;;;4972119;28;20779;-75
2022/07/21 05:40:08;;;;;;;19.40;11.63;;;22.30;99.90;;;;;;4971941;28;20430;-73
2022/07/21 05:42:35;;;;;;;13.77;10.90;;;22.10;99.90;;;;;;4971112;28;20442;-74
2022/07/21 05:45:01;;;;;;;17.23;12.77;;;22.00;99.90;;;;;;4971811;28;20423;-74
2022/07/21 05:47:27;;;;;;;12.83;11.73;;;21.90;99.90;;;;;;4971162;28;20913;-74
2022/07/21 05:49:52;;;;;;;14.53;12.07;;;21.90;99.90;;;;;;4972106;28;20192;-75
2022/07/21 05:52:18;;;;;;;13.37;10.73;;;22.00;99.90;;;;;;4971352;28;20672;-74
2022/07/21 05:54:43;;;;;;;12.73;11.43;;;22.00;99.90;;;;;;4970700;28;20247;-74
2022/07/21 05:57:09;;;;;;;13.20;11.50;;;22.00;99.90;;;;;;4971875;28;20542;-74
2022/07/21 05:59:34;;;;;;;11.83;10.57;;;22.00;99.90;;;;;;4971606;28;20649;-75
2022/07/21 06:02:00;;;;;;;13.30;10.90;;;22.20;99.90;;;;;;4970949;28;20211;-74
2022/07/21 06:04:25;;;;;;;13.13;11.47;;;22.50;99.90;;;;;;4971308;28;20565;-72
2022/07/21 06:06:52;;;;;;;12.23;11.20;;;22.90;99.90;;;;;;4971827;28;20215;-75
2022/07/21 06:09:18;;;;;;;11.90;10.30;;;23.40;99.90;;;;;;4971091;28;20176;-75
2022/07/21 06:11:44;;;;;;;12.10;10.83;;;23.70;99.90;;;;;;4972253;28;20957;-74
2022/07/21 06:14:10;;;;;;;12.33;11.10;;;23.90;99.90;;;;;;4977537;28;21012;-75
2022/07/21 06:16:35;;;;;;;15.50;12.07;;;23.80;99.90;;;;;;4973828;28;20216;-75
2022/07/21 06:19:04;;;;;;;11.10;9.97;;;24.10;99.90;;;;;;4970888;28;20176;-74
2022/07/21 06:21:29;;;;;;;13.30;11.07;;;24.20;99.90;;;;;;4969639;28;20199;-75
2022/07/21 06:23:55;;;;;;;14.00;10.67;;;23.90;99.90;;;;;;4971108;28;20422;-75
2022/07/21 06:26:20;;;;;;;12.10;10.90;;;23.80;99.90;;;;;;4971590;28;20171;-75
2022/07/21 06:28:46;;;;;;;13.37;10.50;;;23.80;99.90;;;;;;4971571;28;20208;-75
2022/07/21 06:31:11;;;;;;;12.87;11.50;;;23.90;99.90;;;;;;4970788;28;20211;-75
2022/07/21 06:33:37;;;;;;;11.07;10.10;;;23.80;99.90;;;;;;4970851;28;20207;-75
2022/07/21 06:36:03;;;;;;;12.10;11.13;;;23.80;99.90;;;;;;4971162;28;20176;-75
2022/07/21 06:38:28;;;;;;;10.90;9.83;;;23.90;99.90;;;;;;4971368;28;20172;-77
2022/07/21 06:40:54;;;;;;;12.40;11.40;;;23.60;99.90;;;;;;4970568;28;20570;-75
2022/07/21 06:43:19;;;;;;;11.90;10.77;;;23.30;99.90;;;;;;4971061;28;20657;-75
2022/07/21 06:45:45;;;;;;;17.20;11.13;;;23.40;99.90;;;;;;4971041;28;20180;-74
2022/07/21 06:48:12;;;;;;;13.37;12.00;;;23.70;99.90;;;;;;4971496;28;20227;-74
2022/07/21 06:50:37;;;;;;;11.07;10.13;;;24.10;99.90;;;;;;4970479;28;20176;-76
2022/07/21 06:53:03;;;;;;;12.10;10.40;;;24.50;99.90;;;;;;4971262;28;20453;-74
2022/07/21 06:55:29;;;;;;;10.90;9.80;;;24.80;99.90;;;;;;4970660;28;20251;-74
2022/07/21 06:57:55;;;;;;;12.00;10.83;;;25.00;99.90;;;;;;4971353;28;20231;-75
2022/07/21 07:00:20;;;;;;;13.50;9.70;;;25.30;99.90;;;;;;4971102;28;20420;-75
2022/07/21 07:02:46;;;;;;;10.93;9.93;;;25.30;99.90;;;;;;4970421;28;20679;-74
2022/07/21 07:05:12;;;;;;;13.47;10.00;;;25.50;99.90;;;;;;4971256;28;20274;-74
2022/07/21 07:07:38;;;;;;;11.10;9.60;;;25.60;99.90;;;;;;4974255;28;20192;-74
2022/07/21 07:10:04;;;;;;;11.23;9.50;;;25.70;99.90;;;;;;4975068;28;20172;-75
2022/07/21 07:12:29;;;;;;;10.20;9.23;;;25.60;99.90;;;;;;4974357;28;20485;-74
2022/07/21 07:14:55;;;;;;;10.27;9.30;;;25.60;99.90;;;;;;4974421;28;20475;-75
2022/07/21 07:17:20;;;;;;;8.90;8.10;;;25.70;99.90;;;;;;4974610;28;20180;-75
2022/07/21 07:19:47;;;;;;;10.57;9.33;;;25.80;99.90;;;;;;4974336;28;20616;-74
2022/07/21 07:22:13;;;;;;;9.53;8.63;;;25.80;99.90;;;;;;4973688;28;20200;-75
2022/07/21 07:24:39;;;;;;;9.20;8.30;;;26.10;99.90;;;;;;4974553;28;20415;-74
2022/07/21 07:27:05;;;;;;;9.80;8.80;;;26.40;99.90;;;;;;4974372;28;20427;-73
2022/07/21 07:29:31;;;;;;;10.80;9.67;;;26.70;99.90;;;;;;4974733;28;20541;-75
2022/07/21 07:31:57;;;;;;;10.67;9.00;;;26.90;99.90;;;;;;4972885;28;20215;-75
2022/07/21 07:34:22;;;;;;;10.10;8.80;;;27.30;99.90;;;;;;4974234;28;20825;-75
2022/07/21 07:36:48;;;;;;;9.43;8.43;;;27.60;99.90;;;;;;4974483;28;20470;-75
2022/07/21 07:39:15;;;;;;;10.37;9.27;;;27.70;99.90;;;;;;4957220;28;20215;-74
2022/07/21 07:41:41;;;;;;;9.40;8.50;;;27.90;99.90;;;;;;4973470;28;20708;-75
2022/07/21 07:44:07;;;;;;;9.47;8.57;;;27.50;99.90;;;;;;4973298;28;20459;-75
2022/07/21 07:46:33;;;;;;;9.30;8.50;;;27.30;99.90;;;;;;4974300;28;20423;-75
2022/07/21 07:48:59;;;;;;;8.87;8.07;;;26.80;99.90;;;;;;4973820;28;20417;-74
2022/07/21 07:51:25;;;;;;;9.17;8.27;;;26.90;99.90;;;;;;4973480;28;20204;-73
2022/07/21 07:53:50;;;;;;;9.67;8.60;;;27.10;99.90;;;;;;4973631;28;20204;-75
2022/07/21 07:56:16;;;;;;;11.43;8.20;;;27.30;99.90;;;;;;4974241;28;20215;-73
2022/07/21 07:58:41;;;;;;;8.23;7.53;;;27.50;99.90;;;;;;4973260;28;20168;-75
2022/07/21 08:01:07;;;;;;;9.33;8.43;;;27.70;99.90;;;;;;4973492;28;20238;-75
2022/07/21 08:03:33;;;;;;;8.17;7.40;;;27.40;99.90;;;;;;4973580;28;20250;-75
2022/07/21 08:06:03;;;;;;;9.00;7.20;;;27.40;99.90;;;;;;4955934;28;20190;-75
2022/07/21 08:08:30;;;;;;;7.93;7.17;;;27.50;99.90;;;;;;4973888;28;20675;-74
2022/07/21 08:10:55;;;;;;;7.47;6.87;;;27.40;99.90;;;;;;4973040;28;20439;-74
2022/07/21 08:13:21;;;;;;;8.17;7.47;;;27.50;99.90;;;;;;4973570;28;20459;-75
2022/07/21 08:15:47;;;;;;;6.73;6.10;;;28.00;99.90;;;;;;4973408;28;20181;-74
2022/07/21 08:18:13;;;;;;;8.43;7.50;;;28.10;99.90;;;;;;4973160;28;20656;-75
2022/07/21 08:20:39;;;;;;;8.73;6.83;;;27.80;99.90;;;;;;4972652;28;20415;-74
2022/07/21 08:23:06;;;;;;;8.20;6.87;;;27.30;99.90;;;;;;4973602;28;20726;-73
2022/07/21 08:25:32;;;;;;;9.37;8.00;;;27.00;99.90;;;;;;4973143;28;20176;-75
2022/07/21 08:27:57;;;;;;;7.77;6.97;;;26.60;99.90;;;;;;4973562;28;20420;-73
2022/07/21 08:30:23;;;;;;;8.63;7.60;;;26.20;99.90;;;;;;4973015;28;20506;-72
2022/07/21 08:32:49;;;;;;;10.70;8.20;;;26.00;99.90;;;;;;4972974;28;20732;-74
2022/07/21 08:35:15;;;;;;;7.93;7.13;;;25.90;99.90;;;;;;4973249;28;20550;-75
2022/07/21 08:37:40;;;;;;;7.50;6.90;;;25.70;99.90;;;;;;4973209;28;20176;-75
2022/07/21 08:40:08;;;;;;;8.67;7.83;;;25.70;99.90;;;;;;4972754;28;20202;-73
2022/07/21 08:42:35;;;;;;;8.10;7.30;;;26.00;99.90;;;;;;4972607;28;20207;-76
2022/07/21 08:45:00;;;;;;;8.77;7.87;;;26.20;99.90;;;;;;4972857;28;20531;-75
2022/07/21 08:47:27;;;;;;;8.57;7.73;;;26.10;99.90;;;;;;4972867;28;20971;-74
2022/07/21 08:49:54;;;;;;;8.80;6.60;;;26.00;99.90;;;;;;4973073;28;20180;-75
2022/07/21 08:52:20;;;;;;;9.80;6.80;;;26.20;99.90;;;;;;4972194;28;20431;-76
2022/07/21 08:54:45;;;;;;;7.27;6.30;;;26.70;99.90;;;;;;4972038;28;20826;-75
2022/07/21 08:57:11;;;;;;;9.63;6.77;;;27.30;99.90;;;;;;4973196;28;20768;-74
2022/07/21 08:59:37;;;;;;;9.37;7.60;;;27.90;99.90;;;;;;4972797;28;20187;-74
2022/07/21 09:02:03;;;;;;;8.33;7.10;;;28.10;99.90;;;;;;4965700;28;20212;-75
2022/07/21 09:04:34;;;;;;;8.13;6.93;;;28.80;99.90;;;;;;4958002;28;20185;-75
2022/07/21 09:07:05;;;;;;;8.73;6.63;;;29.30;99.90;;;;;;4953459;29;20431;-75
2022/07/21 09:09:34;;;;;;;6.40;5.80;;;29.60;99.90;;;;;;4953689;29;20412;-74
2022/07/21 09:12:01;;;;;;;7.90;7.00;;;29.80;99.90;;;;;;4952708;28;20824;-75
2022/07/21 09:14:30;;;;;;;9.70;6.47;;;29.60;99.90;;;;;;4953078;29;20467;-73
2022/07/21 09:16:58;;;;;;;6.90;6.37;;;29.00;99.90;;;;;;4953035;29;20419;-75
2022/07/21 09:19:33;;;;;;;8.63;6.50;;;28.80;99.90;;;;;;4952551;29;20409;-74
2022/07/21 09:22:01;;;;;;;6.80;6.03;;;28.80;99.90;;;;;;4952589;28;20431;-75
2022/07/21 09:24:31;;;;;;;6.40;5.80;;;29.30;99.90;;;;;;4953121;29;20415;-75
2022/07/21 09:27:16;;;;;;;5.60;5.20;;;28.90;99.90;;;;;;4953295;29;20921;-76
2022/07/21 09:29:41;;;;;;;6.37;5.67;;;28.90;99.90;;;;;;4950971;28;21204;-76
2022/07/21 09:32:28;;;;;;;7.27;6.17;;;29.20;99.90;;;;;;4951771;28;20555;-75
2022/07/21 09:35:13;;;;;;;6.47;5.90;;;29.40;99.90;;;;;;4952707;29;20223;-75
2022/07/21 09:37:39;;;;;;;5.83;5.43;;;29.60;99.90;;;;;;4952831;29;20902;-75
2022/07/21 09:40:13;;;;;;;6.17;5.57;;;30.00;99.90;;;;;;4953279;29;20416;-73
2022/07/21 09:42:50;;;;;;;5.93;5.60;;;30.60;99.90;;;;;;4952117;28;20518;-75
2022/07/21 09:45:17;;;;;;;5.20;4.80;;;31.30;99.90;;;;;;4952252;29;20408;-76
2022/07/21 09:47:45;;;;;;;5.10;4.47;;;31.40;99.90;;;;;;4952861;29;20751;-76
2022/07/21 09:50:13;;;;;;;5.30;4.90;;;31.60;99.90;;;;;;4953099;29;20499;-75
2022/07/21 09:52:43;;;;;;;6.77;5.47;;;30.80;99.90;;;;;;4952143;28;20436;-75
2022/07/21 09:55:11;;;;;;;5.53;5.07;;;30.40;99.90;;;;;;4953320;29;20464;-75
2022/07/21 09:57:37;;;;;;;5.40;4.90;;;30.20;99.90;;;;;;4953808;29;20448;-75
2022/07/21 10:00:09;;;;;;;5.17;4.77;;;29.80;99.90;;;;;;4951809;29;20420;-74
2022/07/21 10:02:34;;;;;;;5.90;5.50;;;29.60;99.90;;;;;;4951942;28;20436;-75
2022/07/21 10:05:12;;;;;;;5.00;4.70;;;29.20;99.90;;;;;;4952348;29;20487;-76
2022/07/21 10:07:40;;;;;;;4.37;4.10;;;29.10;99.90;;;;;;4952360;29;20211;-75
2022/07/21 10:10:06;;;;;;;7.03;4.10;;;29.10;99.90;;;;;;4952423;29;20515;-74
2022/07/21 10:12:33;;;;;;;5.87;5.20;;;29.00;99.90;;;;;;4951384;28;20491;-74
2022/07/21 10:14:59;;;;;;;7.40;5.57;;;28.70;99.90;;;;;;4951831;29;20575;-76
2022/07/21 10:17:25;;;;;;;5.37;4.90;;;28.40;99.90;;;;;;4952445;29;20499;-74
2022/07/21 10:20:05;;;;;;;5.23;4.73;;;28.10;99.90;;;;;;4952110;29;20169;-74
2022/07/21 10:22:40;;;;;;;5.70;5.20;;;28.00;99.90;;;;;;4951874;28;20431;-74
2022/07/21 10:25:06;;;;;;;5.20;4.90;;;28.40;99.90;;;;;;4952988;29;20423;-75
2022/07/21 10:27:32;;;;;;;5.53;5.00;;;29.50;99.90;;;;;;4953343;29;20416;-75
2022/07/21 10:30:03;;;;;;;7.50;5.37;;;30.10;99.90;;;;;;4952545;29;20416;-76
2022/07/21 10:32:34;;;;;;;5.30;4.90;;;31.00;99.90;;;;;;4953236;28;20220;-76
2022/07/21 10:35:20;;;;;;;5.13;4.63;;;31.90;99.90;;;;;;4953028;29;20570;-77
2022/07/21 10:37:47;;;;;;;6.57;4.50;;;32.20;99.90;;;;;;4952421;29;20507;-74
2022/07/21 10:40:18;;;;;;;4.80;4.30;;;32.30;99.90;;;;;;4951600;28;20827;-76
2022/07/21 10:42:44;;;;;;;6.00;4.33;;;32.20;99.90;;;;;;4955369;28;20432;-75
2022/07/21 10:45:39;;;;;;;4.23;3.97;;;32.60;99.90;;;;;;4956569;29;20416;-74
2022/07/21 10:48:28;;;;;;;4.90;4.20;;;32.50;99.90;;;;;;4957146;29;20184;-75
2022/07/21 10:50:58;;;;;;;5.60;5.20;;;32.70;99.90;;;;;;4955264;28;20431;-75
2022/07/21 10:53:23;;;;;;;4.63;4.33;;;31.70;99.90;;;;;;4956991;29;20404;-75
2022/07/21 10:55:51;;;;;;;5.03;4.53;;;31.10;99.90;;;;;;4955726;29;20415;-75
2022/07/21 10:58:23;;;;;;;9.87;4.60;;;30.30;99.90;;;;;;4955407;29;20657;-72
2022/07/21 11:00:49;;;;;;;4.60;4.30;;;29.50;99.90;;;;;;4954956;28;20440;-75
2022/07/21 11:03:30;;;;;;;4.27;3.97;;;29.20;99.90;;;;;;4956159;29;20500;-75
2022/07/21 11:06:19;;;;;;;5.43;5.00;;;28.60;99.90;;;;;;4955393;29;20412;-75
2022/07/21 11:08:47;;;;;;;5.83;4.00;;;28.20;99.90;;;;;;4955383;29;20412;-72
2022/07/21 11:11:27;;;;;;;7.60;3.80;;;28.20;99.90;;;;;;4955148;28;20444;-73
2022/07/21 11:14:13;;;;;;;4.40;3.93;;;28.50;99.90;;;;;;4954871;29;20554;-75
2022/07/21 11:16:41;;;;;;;3.57;3.37;;;28.50;99.90;;;;;;4955749;29;20419;-75
2022/07/21 11:19:31;;;;;;;4.20;3.90;;;28.50;99.90;;;;;;4955534;29;20408;-75
2022/07/21 11:22:00;;;;;;;4.23;3.83;;;28.20;99.90;;;;;;4953894;28;21220;-74
2022/07/21 11:24:26;;;;;;;4.57;4.17;;;28.10;99.90;;;;;;4937598;29;20464;-75
2022/07/21 11:27:13;;;;;;;6.63;3.87;;;28.10;99.90;;;;;;4955204;29;20427;-74
2022/07/21 11:29:41;;;;;;;3.63;3.23;;;28.00;99.90;;;;;;4955183;29;20796;-75
2022/07/21 11:32:08;;;;;;;8.93;4.20;;;27.90;99.90;;;;;;4954277;28;20459;-75
2022/07/21 11:34:42;;;;;;;4.93;4.43;;;28.10;99.90;;;;;;4955061;29;20562;-75
2022/07/21 11:37:09;;;;;;;4.60;4.20;;;28.30;99.90;;;;;;4954770;29;20407;-75
2022/07/21 11:39:35;;;;;;;5.80;5.20;;;28.30;99.90;;;;;;4954796;29;20416;-75
2022/07/21 11:42:06;;;;;;;5.20;4.20;;;28.20;99.90;;;;;;4954440;28;20580;-76
2022/07/21 11:44:32;;;;;;;4.83;4.43;;;28.10;99.90;;;;;;4954988;29;20413;-75
2022/07/21 11:47:00;;;;;;;4.70;4.23;;;28.50;99.90;;;;;;4954761;29;20863;-75
2022/07/21 11:49:26;;;;;;;5.10;4.70;;;29.00;99.90;;;;;;4954625;29;20181;-75
2022/07/21 11:51:55;;;;;;;4.93;4.57;;;29.20;99.90;;;;;;4953781;28;20455;-75
2022/07/21 11:54:35;;;;;;;5.70;4.13;;;29.50;99.90;;;;;;4954552;29;20204;-75
2022/07/21 11:57:07;;;;;;;4.90;4.50;;;29.70;99.90;;;;;;4954835;29;20773;-76
2022/07/21 11:59:33;;;;;;;5.17;4.67;;;29.60;99.90;;;;;;4954240;29;20408;-75
2022/07/21 12:02:07;;;;;;;5.27;3.80;;;29.40;99.90;;;;;;4953821;28;20445;-74
2022/07/21 12:04:45;;;;;;;8.53;4.07;;;29.30;99.90;;;;;;4954248;29;20827;-75
2022/07/21 12:07:21;;;;;;;4.80;4.43;;;28.90;99.90;;;;;;4954985;29;20762;-74
2022/07/21 12:10:00;;;;;;;5.60;4.80;;;29.00;99.90;;;;;;4953827;29;20412;-75
2022/07/21 12:12:31;;;;;;;4.73;4.23;;;29.10;99.90;;;;;;4953949;28;20440;-74
2022/07/21 12:15:08;;;;;;;5.10;4.70;;;29.10;99.90;;;;;;4954081;29;20968;-75
2022/07/21 12:17:37;;;;;;;5.50;4.97;;;28.90;99.90;;;;;;4954566;29;20447;-75
2022/07/21 12:20:07;;;;;;;5.80;5.30;;;28.60;99.90;;;;;;4954251;29;20507;-75
2022/07/21 12:22:44;;;;;;;5.70;5.30;;;28.40;99.90;;;;;;4953218;28;20515;-75
2022/07/21 12:25:11;;;;;;;5.50;5.07;;;28.70;99.90;;;;;;4954123;29;20782;-75
2022/07/21 12:27:42;;;;;;;5.77;5.27;;;28.70;99.90;;;;;;4954302;29;20825;-75
2022/07/21 12:30:09;;;;;;;6.17;5.50;;;28.50;99.90;;;;;;4915553;28;20488;-76
2022/07/21 12:32:49;;;;;;;6.20;5.60;;;28.30;99.90;;;;;;4865173;28;20765;-76
2022/07/21 12:35:20;;;;;;;6.27;5.67;;;28.40;99.90;;;;;;4884441;28;20960;-76
2022/07/21 12:41:02;;;;;;;5.80;5.40;;;28.70;99.90;;;;;;4890630;28;21233;-74
2022/07/21 12:43:28;;;;;;;6.87;6.17;;;29.00;99.90;;;;;;4861978;28;20659;-75
2022/07/21 12:46:18;;;;;;;5.93;5.43;;;29.40;99.90;;;;;;4863016;28;21304;-76
2022/07/21 12:48:45;;;;;;;7.50;6.80;;;29.50;99.90;;;;;;4856788;28;20486;-77
2022/07/21 12:51:23;;;;;;;6.53;6.10;;;29.80;99.90;;;;;;4860245;28;20812;-77
2022/07/21 12:53:54;;;;;;;7.20;6.60;;;29.80;99.90;;;;;;4859837;28;20794;-74
2022/07/21 12:56:48;;;;;;;7.13;6.00;;;29.60;99.90;;;;;;4865902;28;21086;-74
2022/07/21 12:59:14;;;;;;;6.17;5.57;;;29.30;99.90;;;;;;4863219;28;20761;-74
2022/07/21 13:01:46;;;;;;;6.17;5.63;;;29.10;99.90;;;;;;4861780;28;20818;-74
2022/07/21 13:04:12;;;;;;;8.20;5.83;;;29.00;99.90;;;;;;4944799;28;20423;-74
2022/07/21 13:06:37;;;;;;;6.27;5.77;;;28.70;99.90;;;;;;4972152;28;20788;-73
2022/07/21 13:09:03;;;;;;;8.93;6.83;;;28.60;99.90;;;;;;4979683;28;20195;-74
2022/07/21 13:11:28;;;;;;;6.93;5.93;;;28.10;99.90;;;;;;4991207;28;20195;-74
2022/07/21 13:13:57;;;;;;;6.07;5.57;;;28.00;99.90;;;;;;4991083;28;20195;-75
2022/07/21 13:16:23;;;;;;;6.90;6.30;;;28.10;99.90;;;;;;4991916;28;20206;-75
2022/07/21 13:18:48;;;;;;;7.10;6.50;;;28.20;99.90;;;;;;4991830;28;20910;-74
2022/07/21 13:21:14;;;;;;;6.70;6.03;;;28.20;99.90;;;;;;4991264;28;20574;-74
2022/07/21 13:23:39;;;;;;;8.43;5.73;;;28.30;99.90;;;;;;4973248;28;20198;-74
2022/07/21 13:26:05;;;;;;;8.70;5.97;;;28.20;99.90;;;;;;4990707;28;20176;-74
2022/07/21 13:28:31;;;;;;;7.10;6.40;;;28.20;99.90;;;;;;4991670;28;20178;-75
2022/07/21 13:30:57;;;;;;;6.77;6.13;;;28.40;99.90;;;;;;4990632;28;20198;-74
2022/07/21 13:33:22;;;;;;;6.67;5.70;;;28.70;99.90;;;;;;4991202;28;20947;-75
2022/07/21 13:35:48;;;;;;;6.17;5.67;;;28.70;99.90;;;;;;4990986;28;20184;-75
2022/07/21 13:38:15;;;;;;;6.83;5.07;;;28.50;99.90;;;;;;4991534;28;20593;-74
2022/07/21 13:40:42;;;;;;;6.00;5.60;;;28.20;99.90;;;;;;4973099;28;20660;-74
2022/07/21 13:43:07;;;;;;;6.93;6.27;;;28.10;99.90;;;;;;4991529;28;20413;-75
2022/07/21 13:45:33;;;;;;;7.03;6.17;;;27.90;99.90;;;;;;4990935;28;20414;-75
2022/07/21 13:47:58;;;;;;;7.00;6.50;;;27.90;99.90;;;;;;4991462;28;20883;-74
2022/07/21 13:50:24;;;;;;;6.23;5.73;;;27.90;99.90;;;;;;4973451;28;20630;-73
2022/07/21 13:52:49;;;;;;;5.67;5.20;;;28.10;99.90;;;;;;4990882;28;20195;-75
2022/07/21 13:55:15;;;;;;;5.40;4.90;;;28.10;99.90;;;;;;4990883;28;20273;-75
2022/07/21 13:57:40;;;;;;;6.60;6.00;;;28.10;99.90;;;;;;4991216;28;20171;-74
2022/07/21 14:00:10;;;;;;;9.73;5.37;;;28.20;99.90;;;;;;4991169;28;20182;-74
2022/07/21 14:02:36;;;;;;;6.47;5.37;;;28.20;99.90;;;;;;4990326;28;20249;-75
2022/07/21 14:05:03;;;;;;;5.27;4.87;;;28.30;99.90;;;;;;4991062;28;20426;-76
2022/07/21 14:07:29;;;;;;;4.93;4.53;;;28.40;99.90;;;;;;4990678;28;20473;-74
2022/07/21 14:09:54;;;;;;;5.37;4.93;;;28.60;99.90;;;;;;4991073;28;20418;-75
2022/07/21 14:12:20;;;;;;;5.37;4.97;;;28.60;99.90;;;;;;4972896;28;20198;-76
2022/07/21 14:14:46;;;;;;;6.13;5.50;;;28.50;99.90;;;;;;4972421;28;20592;-75